createdAt,value
2019-03-30T00:01:53.461Z,17.60
2019-03-30T00:04:19.622Z,17.35
2019-03-30T00:06:45.794Z,16.35
2019-03-30T00:09:12.033Z,17.12
2019-03-30T00:11:38.188Z,19.05
2019-03-30T00:14:04.310Z,19.87
2019-03-30T00:16:30.351Z,19.57
2019-03-30T00:18:56.419Z,15.88
2019-03-30T00:21:22.540Z,18.60
2019-03-30T00:23:48.681Z,18.07
2019-03-30T00:26:14.798Z,21.00
2019-03-30T00:28:41.170Z,19.05
2019-03-30T00:31:07.305Z,20.17
2019-03-30T00:33:37.228Z,19.23
2019-03-30T00:36:03.381Z,17.42
2019-03-30T00:38:29.632Z,19.48
2019-03-30T00:40:55.976Z,18.17
2019-03-30T00:43:22.117Z,19.45
2019-03-30T00:45:48.257Z,17.62
2019-03-30T00:48:14.278Z,19.10
2019-03-30T00:50:40.412Z,18.00
2019-03-30T00:53:06.530Z,17.37
2019-03-30T00:55:32.580Z,17.85
2019-03-30T00:57:58.606Z,18.10
2019-03-30T01:00:24.744Z,18.00
2019-03-30T01:02:50.765Z,18.85
2019-03-30T01:05:16.908Z,16.45
2019-03-30T01:07:43.035Z,15.23
2019-03-30T01:10:09.265Z,16.85
2019-03-30T01:12:35.381Z,17.37
2019-03-30T01:15:02.109Z,17.12
2019-03-30T01:17:28.227Z,16.85
2019-03-30T01:20:02.738Z,17.80
2019-03-30T01:22:22.267Z,16.70
2019-03-30T01:24:48.317Z,15.65
2019-03-30T01:27:14.438Z,15.20
2019-03-30T01:29:40.574Z,15.93
2019-03-30T01:32:06.601Z,15.85
2019-03-30T01:34:32.737Z,17.00
2019-03-30T01:36:58.861Z,16.85
2019-03-30T01:39:24.883Z,18.37
2019-03-30T01:41:50.896Z,18.35
2019-03-30T01:44:17.053Z,18.73
2019-03-30T01:46:43.086Z,16.87
2019-03-30T01:49:09.098Z,17.00
2019-03-30T01:51:35.323Z,17.55
2019-03-30T01:54:01.338Z,16.97
2019-03-30T01:56:27.474Z,17.20
2019-03-30T01:58:53.502Z,18.35
2019-03-30T02:01:19.526Z,18.57
2019-03-30T02:03:45.588Z,18.98
2019-03-30T02:06:11.709Z,19.30
2019-03-30T02:08:37.774Z,18.48
2019-03-30T02:11:03.991Z,18.10
2019-03-30T02:13:30.182Z,17.77
2019-03-30T02:15:56.412Z,18.27
2019-03-30T02:18:27.561Z,17.52
2019-03-30T02:20:53.689Z,18.37
2019-03-30T02:23:19.808Z,17.17
2019-03-30T02:25:45.963Z,16.60
2019-03-30T02:28:12.178Z,19.27
2019-03-30T02:30:38.354Z,17.10
2019-03-30T02:33:05.216Z,16.05
2019-03-30T02:35:31.360Z,15.45
2019-03-30T02:37:57.689Z,16.65
2019-03-30T02:40:23.715Z,15.25
2019-03-30T02:42:49.936Z,16.23
2019-03-30T02:45:16.141Z,15.75
2019-03-30T02:47:42.264Z,16.05
2019-03-30T02:50:08.476Z,15.30
2019-03-30T02:52:34.609Z,15.95
2019-03-30T02:55:00.756Z,17.27
2019-03-30T02:57:26.882Z,17.17
2019-03-30T02:59:53.002Z,16.23
2019-03-30T03:02:19.163Z,15.08
2019-03-30T03:04:45.183Z,15.93
2019-03-30T03:07:11.294Z,16.25
2019-03-30T03:09:37.340Z,16.67
2019-03-30T03:12:03.450Z,14.50
2019-03-30T03:14:29.609Z,15.20
2019-03-30T03:16:55.719Z,15.50
2019-03-30T03:19:21.878Z,16.55
2019-03-30T03:21:48.007Z,16.37
2019-03-30T03:24:14.126Z,15.05
2019-03-30T03:26:40.168Z,16.30
2019-03-30T03:29:06.335Z,15.20
2019-03-30T03:31:35.133Z,15.55
2019-03-30T03:34:01.250Z,15.18
2019-03-30T03:36:27.357Z,16.07
2019-03-30T03:38:54.907Z,16.95
2019-03-30T03:41:21.025Z,15.08
2019-03-30T03:43:47.252Z,16.35
2019-03-30T03:46:13.388Z,16.50
2019-03-30T03:48:39.432Z,15.75
2019-03-30T03:51:05.765Z,15.38
2019-03-30T03:53:34.196Z,15.78
2019-03-30T03:56:00.511Z,17.70
2019-03-30T03:58:30.240Z,16.65
2019-03-30T04:00:56.868Z,17.35
2019-03-30T04:03:24.893Z,15.70
2019-03-30T04:05:54.617Z,16.93
2019-03-30T04:08:24.141Z,16.57
2019-03-30T04:10:51.085Z,15.65
2019-03-30T04:13:17.213Z,15.65
2019-03-30T04:15:43.467Z,15.80
2019-03-30T04:18:09.667Z,18.00
2019-03-30T04:20:35.827Z,16.77
2019-03-30T04:23:01.853Z,16.50
2019-03-30T04:25:27.938Z,16.05
2019-03-30T04:27:54.036Z,16.87
2019-03-30T04:30:20.192Z,16.30
2019-03-30T04:32:46.311Z,15.65
2019-03-30T04:35:12.333Z,16.77
2019-03-30T04:37:38.478Z,16.93
2019-03-30T04:40:04.895Z,17.02
2019-03-30T04:42:30.931Z,15.75
2019-03-30T04:44:57.065Z,16.17
2019-03-30T04:47:23.192Z,17.70
2019-03-30T04:49:49.446Z,16.12
2019-03-30T04:52:15.475Z,17.80
2019-03-30T04:54:41.608Z,17.40
2019-03-30T04:57:07.747Z,17.48
2019-03-30T04:59:33.889Z,17.57
2019-03-30T05:02:00.011Z,15.78
2019-03-30T05:04:26.130Z,16.17
2019-03-30T05:06:52.146Z,16.42
2019-03-30T05:09:18.287Z,17.55
2019-03-30T05:11:44.321Z,19.10
2019-03-30T05:14:10.440Z,18.10
2019-03-30T05:16:36.466Z,17.48
2019-03-30T05:19:02.589Z,19.48
2019-03-30T05:21:28.615Z,21.35
2019-03-30T05:23:54.734Z,21.37
2019-03-30T05:26:20.865Z,25.08
2019-03-30T05:28:46.989Z,37.93
2019-03-30T05:31:13.150Z,35.08
2019-03-30T05:33:39.295Z,41.70
2019-03-30T05:36:05.407Z,34.15
2019-03-30T05:38:31.543Z,32.38
2019-03-30T05:40:57.693Z,30.35
2019-03-30T05:43:23.737Z,25.80
2019-03-30T05:45:49.881Z,25.23
2019-03-30T05:48:15.888Z,25.52
2019-03-30T05:50:42.029Z,28.55
2019-03-30T05:53:08.055Z,29.52
2019-03-30T05:55:34.187Z,26.57
2019-03-30T05:58:00.301Z,25.17
2019-03-30T06:00:26.445Z,24.30
2019-03-30T06:02:54.779Z,23.47
2019-03-30T06:05:20.542Z,25.27
2019-03-30T06:07:46.657Z,23.30
2019-03-30T06:10:12.788Z,23.55
2019-03-30T06:12:38.825Z,23.27
2019-03-30T06:15:06.355Z,25.97
2019-03-30T06:17:32.472Z,23.83
2019-03-30T06:20:00.970Z,24.23
2019-03-30T06:22:39.777Z,25.75
2019-03-30T06:24:55.130Z,36.98
2019-03-30T06:27:21.065Z,32.13
2019-03-30T06:30:19.420Z,31.73
2019-03-30T06:32:45.551Z,28.92
2019-03-30T06:35:11.671Z,27.85
2019-03-30T06:37:37.788Z,28.20
2019-03-30T06:40:04.622Z,27.58
2019-03-30T06:42:30.633Z,27.90
2019-03-30T06:44:56.590Z,26.75
2019-03-30T06:47:22.731Z,28.65
2019-03-30T06:49:48.885Z,27.22
2019-03-30T06:52:15.011Z,28.20
2019-03-30T06:54:41.144Z,25.05
2019-03-30T06:57:07.287Z,26.55
2019-03-30T06:59:33.444Z,25.52
2019-03-30T07:01:59.587Z,29.87
2019-03-30T07:04:25.741Z,37.65
2019-03-30T07:06:51.960Z,34.40
2019-03-30T07:09:21.319Z,37.90
2019-03-30T07:14:14.845Z,35.10
2019-03-30T07:17:05.228Z,35.10
2019-03-30T07:19:34.994Z,33.90
2019-03-30T07:22:01.152Z,33.73
2019-03-30T07:24:27.470Z,31.27
2019-03-30T07:26:53.713Z,30.05
2019-03-30T07:29:20.000Z,29.37
2019-03-30T07:31:49.099Z,26.80
2019-03-30T07:34:15.372Z,32.17
2019-03-30T07:36:43.592Z,31.73
2019-03-30T07:39:09.768Z,31.33
2019-03-30T07:41:35.898Z,31.95
2019-03-30T07:44:04.093Z,28.87
2019-03-30T07:46:30.238Z,31.82
2019-03-30T07:48:56.265Z,29.85
2019-03-30T07:51:22.502Z,28.15
2019-03-30T07:53:48.869Z,30.48
2019-03-30T07:56:15.135Z,32.03
2019-03-30T07:58:41.323Z,35.13
2019-03-30T08:01:07.597Z,34.03
2019-03-30T08:03:33.814Z,32.38
2019-03-30T08:05:59.951Z,28.70
2019-03-30T08:08:26.193Z,26.60
2019-03-30T08:10:52.414Z,28.05
2019-03-30T08:13:18.542Z,24.40
2019-03-30T08:15:44.590Z,24.77
2019-03-30T08:18:10.714Z,24.67
2019-03-30T08:20:36.987Z,24.98
2019-03-30T08:23:03.107Z,26.00
2019-03-30T08:25:29.394Z,23.32
2019-03-30T08:27:55.518Z,23.95
2019-03-30T08:30:21.670Z,21.42
2019-03-30T08:32:47.860Z,22.73
2019-03-30T08:35:14.104Z,21.37
2019-03-30T08:37:40.226Z,19.48
2019-03-30T08:40:06.550Z,20.43
2019-03-30T08:42:32.791Z,19.20
2019-03-30T08:44:59.040Z,22.05
2019-03-30T08:47:25.322Z,21.45
2019-03-30T08:49:51.613Z,22.80
2019-03-30T08:52:20.567Z,21.15
2019-03-30T08:54:46.725Z,20.43
2019-03-30T08:57:12.762Z,21.37
2019-03-30T08:59:38.871Z,21.55
2019-03-30T09:02:04.994Z,21.93
2019-03-30T09:04:31.859Z,21.02
2019-03-30T09:06:57.943Z,21.27
2019-03-30T09:09:24.074Z,18.92
2019-03-30T09:11:50.240Z,18.45
2019-03-30T09:14:16.441Z,22.45
2019-03-30T09:16:42.615Z,17.95
2019-03-30T09:19:09.036Z,14.90
2019-03-30T09:21:35.165Z,16.75
2019-03-30T09:24:09.347Z,95.80
2019-03-30T09:26:29.361Z,15.45
2019-03-30T09:28:55.580Z,13.38
2019-03-30T09:31:21.839Z,59.20
2019-03-30T09:33:48.068Z,16.30
2019-03-30T09:36:14.195Z,14.03
2019-03-30T09:38:40.338Z,15.55
2019-03-30T09:41:06.466Z,14.13
2019-03-30T09:43:32.623Z,14.65
2019-03-30T09:45:58.771Z,14.80
2019-03-30T09:48:24.888Z,13.48
2019-03-30T09:50:51.040Z,13.72
2019-03-30T09:53:17.167Z,12.20
2019-03-30T09:55:43.346Z,13.30
2019-03-30T09:58:09.495Z,33.83
2019-03-30T10:00:35.622Z,15.45
2019-03-30T10:03:01.753Z,11.97
2019-03-30T10:05:27.807Z,10.38
2019-03-30T10:07:53.955Z,11.75
2019-03-30T10:10:20.094Z,10.70
2019-03-30T10:12:46.244Z,11.45
2019-03-30T10:15:12.862Z,8.13
2019-03-30T10:17:39.126Z,8.13
2019-03-30T10:20:08.460Z,7.92
2019-03-30T10:25:00.646Z,5.00
2019-03-30T10:27:26.959Z,6.45
2019-03-30T10:29:54.890Z,4.55
2019-03-30T10:32:21.022Z,4.15
2019-03-30T10:34:47.283Z,4.85
2019-03-30T10:37:13.444Z,6.40
2019-03-30T10:39:39.567Z,3.30
2019-03-30T10:42:05.682Z,3.00
2019-03-30T10:44:31.879Z,4.20
2019-03-30T10:46:58.465Z,5.03
2019-03-30T10:49:24.714Z,4.55
2019-03-30T10:51:54.147Z,7.70
2019-03-30T10:54:18.776Z,6.85
2019-03-30T10:56:45.013Z,7.33
2019-03-30T10:59:11.143Z,7.92
2019-03-30T11:01:37.347Z,6.83
2019-03-30T11:04:03.479Z,8.58
2019-03-30T11:06:29.708Z,6.53
2019-03-30T11:08:55.819Z,17.30
2019-03-30T11:11:21.957Z,5.37
2019-03-30T11:13:48.122Z,8.18
2019-03-30T11:16:20.360Z,6.30
2019-03-30T11:18:42.191Z,11.63
2019-03-30T11:21:08.355Z,4.00
2019-03-30T11:23:34.481Z,4.22
2019-03-30T11:26:00.769Z,3.95
2019-03-30T11:28:26.866Z,5.00
2019-03-30T11:30:52.998Z,5.67
2019-03-30T11:33:19.136Z,15.63
2019-03-30T11:35:45.257Z,3.87
2019-03-30T11:38:11.489Z,3.22
2019-03-30T11:40:37.727Z,5.78
2019-03-30T11:43:03.924Z,7.87
2019-03-30T11:45:30.046Z,2.52
2019-03-30T11:47:56.182Z,1.95
2019-03-30T11:50:22.446Z,3.45
2019-03-30T11:52:48.465Z,1.90
2019-03-30T11:55:21.875Z,3.22
2019-03-30T11:57:42.673Z,2.77
2019-03-30T12:00:12.615Z,3.15
2019-03-30T12:02:38.650Z,3.55
2019-03-30T12:05:06.163Z,4.83
2019-03-30T12:07:33.680Z,7.05
2019-03-30T12:09:59.842Z,6.72
2019-03-30T12:12:26.007Z,5.42
2019-03-30T12:14:52.214Z,5.83
2019-03-30T12:17:18.378Z,5.75
2019-03-30T12:19:44.544Z,5.53
2019-03-30T12:22:10.719Z,4.90
2019-03-30T12:24:36.852Z,5.42
2019-03-30T12:27:03.104Z,5.17
2019-03-30T12:29:29.282Z,6.22
2019-03-30T12:31:55.401Z,3.85
2019-03-30T12:34:21.659Z,5.17
2019-03-30T12:36:47.927Z,5.03
2019-03-30T12:39:14.078Z,13.43
2019-03-30T12:41:42.143Z,35.98
2019-03-30T12:44:08.201Z,5.42
2019-03-30T12:46:34.430Z,6.70
2019-03-30T12:49:00.555Z,5.78
2019-03-30T12:51:26.702Z,14.98
2019-03-30T12:53:52.838Z,5.58
2019-03-30T12:56:25.763Z,4.30
2019-03-30T12:58:53.660Z,4.55
2019-03-30T13:01:19.832Z,4.83
2019-03-30T13:03:45.957Z,5.28
2019-03-30T13:06:12.095Z,4.90
2019-03-30T13:08:38.261Z,4.80
2019-03-30T13:11:04.389Z,4.03
2019-03-30T13:13:30.553Z,4.72
2019-03-30T13:15:56.676Z,4.30
2019-03-30T13:18:22.960Z,23.73
2019-03-30T13:20:50.999Z,6.17
2019-03-30T13:23:17.142Z,5.22
2019-03-30T13:25:43.402Z,3.92
2019-03-30T13:28:13.420Z,11.35
2019-03-30T13:30:39.513Z,5.25
2019-03-30T13:33:05.769Z,14.55
2019-03-30T13:35:31.917Z,4.55
2019-03-30T13:37:58.235Z,3.40
2019-03-30T13:40:24.376Z,2.85
2019-03-30T13:42:50.533Z,3.30
2019-03-30T13:45:23.344Z,2.87
2019-03-30T13:47:47.100Z,3.20
2019-03-30T13:50:15.269Z,3.77
2019-03-30T13:52:41.408Z,3.05
2019-03-30T13:55:07.558Z,3.60
2019-03-30T13:57:33.742Z,4.58
2019-03-30T13:59:59.854Z,3.77
2019-03-30T14:02:26.012Z,7.22
2019-03-30T14:04:52.648Z,6.95
2019-03-30T14:07:18.851Z,3.62
2019-03-30T14:09:45.006Z,5.42
2019-03-30T14:12:11.193Z,5.12
2019-03-30T14:14:37.332Z,3.87
2019-03-30T14:17:03.452Z,3.72
2019-03-30T14:19:31.375Z,3.55
2019-03-30T14:21:57.612Z,3.72
2019-03-30T14:24:23.748Z,3.83
2019-03-30T14:26:49.878Z,3.72
2019-03-30T14:29:16.707Z,3.55
2019-03-30T14:31:42.840Z,3.62
2019-03-30T14:34:08.979Z,3.87
2019-03-30T14:36:35.106Z,3.37
2019-03-30T14:39:01.273Z,3.45
2019-03-30T14:41:27.576Z,3.60
2019-03-30T14:43:54.612Z,4.20
2019-03-30T14:46:20.728Z,3.40
2019-03-30T14:48:46.841Z,4.12
2019-03-30T14:51:12.969Z,4.00
2019-03-30T14:53:39.105Z,4.67
2019-03-30T14:56:05.267Z,3.95
2019-03-30T14:58:31.516Z,7.08
2019-03-30T15:00:57.878Z,8.58
2019-03-30T15:03:24.173Z,10.58
2019-03-30T15:05:50.464Z,8.65
2019-03-30T15:08:16.612Z,8.43
2019-03-30T15:10:42.770Z,9.80
2019-03-30T15:13:08.940Z,11.80
2019-03-30T15:15:35.192Z,10.80
2019-03-30T15:18:01.330Z,13.28
2019-03-30T15:20:27.557Z,9.98
2019-03-30T15:22:53.673Z,8.30
2019-03-30T15:25:19.810Z,10.60
2019-03-30T15:27:45.995Z,8.73
2019-03-30T15:30:12.253Z,10.03
2019-03-30T15:32:38.528Z,9.68
2019-03-30T15:35:06.246Z,9.50
2019-03-30T15:37:32.369Z,10.35
2019-03-30T15:39:58.497Z,10.95
2019-03-30T15:42:26.823Z,8.05
2019-03-30T15:44:52.972Z,9.97
2019-03-30T15:47:19.260Z,11.57
2019-03-30T15:49:45.511Z,11.90
2019-03-30T15:52:14.164Z,10.40
2019-03-30T15:54:39.703Z,10.58
2019-03-30T15:57:13.869Z,10.60
2019-03-30T15:59:34.344Z,11.38
2019-03-30T16:02:00.572Z,14.45
2019-03-30T16:04:26.771Z,12.05
2019-03-30T16:06:52.908Z,8.25
2019-03-30T16:09:19.043Z,5.92
2019-03-30T16:11:45.188Z,6.20
2019-03-30T16:14:11.318Z,5.30
2019-03-30T16:16:37.592Z,5.85
2019-03-30T16:19:03.819Z,6.00
2019-03-30T16:21:29.996Z,6.05
2019-03-30T16:23:56.031Z,5.80
2019-03-30T16:26:22.181Z,6.12
2019-03-30T16:28:48.301Z,8.00
2019-03-30T16:31:14.550Z,12.07
2019-03-30T16:33:40.715Z,5.55
2019-03-30T16:36:08.043Z,13.68
2019-03-30T16:38:34.116Z,30.15
2019-03-30T16:41:00.269Z,12.13
2019-03-30T16:43:26.435Z,28.57
2019-03-30T16:45:52.627Z,10.05
2019-03-30T16:48:18.746Z,6.95
2019-03-30T16:50:44.980Z,8.18
2019-03-30T16:53:11.112Z,9.70
2019-03-30T16:55:37.280Z,8.75
2019-03-30T16:58:03.514Z,10.95
2019-03-30T17:00:32.503Z,8.93
2019-03-30T17:02:58.650Z,11.22
2019-03-30T17:05:24.784Z,9.33
2019-03-30T17:07:51.079Z,9.78
2019-03-30T17:10:18.342Z,8.48
2019-03-30T17:12:44.466Z,14.53
2019-03-30T17:15:10.592Z,8.73
2019-03-30T17:17:36.752Z,9.45
2019-03-30T17:20:06.064Z,8.63
2019-03-30T17:24:58.303Z,9.55
2019-03-30T17:27:24.432Z,9.00
2019-03-30T17:29:50.719Z,9.68
2019-03-30T17:32:16.915Z,9.70
2019-03-30T17:34:43.180Z,8.10
2019-03-30T17:37:09.509Z,11.05
2019-03-30T17:39:35.774Z,10.78
2019-03-30T17:42:02.045Z,9.00
2019-03-30T17:44:28.273Z,9.15
2019-03-30T17:46:54.526Z,8.55
2019-03-30T17:49:20.669Z,8.78
2019-03-30T17:51:46.872Z,9.38
2019-03-30T17:54:13.028Z,12.68
2019-03-30T17:56:39.154Z,14.00
2019-03-30T17:59:05.384Z,14.23
2019-03-30T18:01:31.567Z,14.98
2019-03-30T18:03:58.873Z,13.72
2019-03-30T18:06:25.057Z,15.10
2019-03-30T18:08:51.211Z,14.63
2019-03-30T18:11:17.358Z,14.25
2019-03-30T18:13:43.488Z,12.15
2019-03-30T18:16:09.663Z,12.65
2019-03-30T18:18:35.801Z,14.70
2019-03-30T18:21:01.926Z,14.15
2019-03-30T18:23:30.126Z,14.53
2019-03-30T18:25:56.435Z,16.65
2019-03-30T18:28:27.263Z,15.58
2019-03-30T18:30:50.720Z,15.48
2019-03-30T18:33:16.953Z,14.45
2019-03-30T18:35:43.174Z,10.85
2019-03-30T18:38:12.599Z,13.20
2019-03-30T18:40:37.616Z,13.62
2019-03-30T18:43:03.833Z,13.38
2019-03-30T18:45:30.068Z,19.57
2019-03-30T18:48:52.678Z,19.40
2019-03-30T18:51:20.339Z,20.12
2019-03-30T18:53:47.670Z,16.73
2019-03-30T18:56:14.196Z,13.55
2019-03-30T18:58:41.869Z,11.75
2019-03-30T19:01:08.401Z,12.23
2019-03-30T19:03:34.630Z,10.70
2019-03-30T19:06:01.269Z,23.20
2019-03-30T19:08:27.557Z,16.05
2019-03-30T19:10:53.786Z,44.93
2019-03-30T19:13:19.939Z,17.62
2019-03-30T19:15:46.075Z,9.15
2019-03-30T19:18:14.843Z,11.12
2019-03-30T19:20:40.992Z,10.60
2019-03-30T19:23:07.126Z,12.70
2019-03-30T19:25:33.251Z,11.03
2019-03-30T19:27:59.381Z,10.85
2019-03-30T19:30:26.058Z,11.15
2019-03-30T19:32:52.261Z,16.87
2019-03-30T19:35:18.498Z,11.35
2019-03-30T19:37:44.520Z,9.18
2019-03-30T19:40:10.801Z,11.05
2019-03-30T19:42:36.931Z,9.43
2019-03-30T19:45:06.593Z,8.98
2019-03-30T19:47:32.731Z,9.50
2019-03-30T19:49:58.876Z,10.35
2019-03-30T19:52:38.949Z,11.30
2019-03-30T19:54:53.246Z,10.25
2019-03-30T19:57:19.374Z,11.33
2019-03-30T19:59:45.496Z,11.38
2019-03-30T20:02:11.742Z,10.38
2019-03-30T20:04:37.974Z,11.83
2019-03-30T20:07:04.124Z,11.20
2019-03-30T20:09:32.882Z,12.60
2019-03-30T20:11:59.115Z,10.15
2019-03-30T20:14:25.363Z,11.43
2019-03-30T20:16:51.518Z,13.50
2019-03-30T20:19:17.674Z,13.90
2019-03-30T20:21:43.935Z,13.72
2019-03-30T20:24:10.222Z,13.25
2019-03-30T20:26:36.338Z,10.93
2019-03-30T20:29:03.096Z,10.55
2019-03-30T20:31:29.263Z,11.57
2019-03-30T20:33:55.409Z,11.38
2019-03-30T20:36:21.582Z,12.55
2019-03-30T20:38:47.740Z,12.43
2019-03-30T20:41:13.877Z,12.55
2019-03-30T20:43:40.048Z,13.30
2019-03-30T20:46:10.496Z,26.82
2019-03-30T20:48:36.637Z,12.13
2019-03-30T20:51:02.823Z,12.23
2019-03-30T20:53:28.969Z,12.15
2019-03-30T20:55:55.150Z,11.38
2019-03-30T20:58:21.283Z,15.58
2019-03-30T21:00:47.414Z,15.95
2019-03-30T21:03:13.547Z,13.10
2019-03-30T21:05:39.812Z,13.65
2019-03-30T21:08:05.990Z,12.25
2019-03-30T21:10:32.138Z,11.43
2019-03-30T21:12:58.293Z,11.22
2019-03-30T21:15:24.466Z,9.65
2019-03-30T21:17:50.603Z,9.88
2019-03-30T21:20:16.858Z,10.98
2019-03-30T21:22:43.004Z,11.43
2019-03-30T21:25:09.194Z,11.83
2019-03-30T21:27:35.960Z,11.00
2019-03-30T21:30:05.847Z,12.73
2019-03-30T21:32:31.962Z,10.60
2019-03-30T21:34:58.146Z,11.90
2019-03-30T21:37:24.370Z,11.95
2019-03-30T21:39:50.411Z,12.45
2019-03-30T21:42:16.650Z,11.28
2019-03-30T21:44:42.896Z,12.30
2019-03-30T21:47:10.973Z,12.33
2019-03-30T21:49:37.210Z,13.78
2019-03-30T21:52:03.571Z,13.88
2019-03-30T21:54:29.707Z,12.47
2019-03-30T21:56:55.971Z,12.23
2019-03-30T21:59:22.170Z,12.75
2019-03-30T22:01:48.392Z,11.85
2019-03-30T22:04:14.526Z,12.88
2019-03-30T22:06:40.783Z,12.13
2019-03-30T22:09:07.125Z,11.68
2019-03-30T22:11:33.724Z,12.33
2019-03-30T22:13:59.871Z,11.88
2019-03-30T22:16:25.999Z,12.43
2019-03-30T22:18:53.898Z,11.38
2019-03-30T22:21:20.137Z,11.43
2019-03-30T22:23:46.393Z,11.10
2019-03-30T22:26:12.635Z,11.30
2019-03-30T22:28:38.754Z,10.85
2019-03-30T22:31:04.908Z,12.50
2019-03-30T22:33:31.046Z,14.50
2019-03-30T22:35:57.202Z,16.97
2019-03-30T22:38:23.320Z,15.98
2019-03-30T22:40:52.323Z,13.88
2019-03-30T22:43:18.459Z,16.00
2019-03-30T22:45:44.614Z,16.67
2019-03-30T22:48:10.742Z,17.02
2019-03-30T22:50:36.907Z,15.45
2019-03-30T22:53:03.043Z,10.55
2019-03-30T22:55:29.213Z,14.00
2019-03-30T22:57:55.240Z,13.45
2019-03-30T23:03:17.011Z,13.22
2019-03-30T23:05:43.159Z,14.75
2019-03-30T23:08:09.328Z,14.87
2019-03-30T23:10:35.364Z,14.78
2019-03-30T23:13:01.529Z,15.53
2019-03-30T23:15:27.691Z,18.07
2019-03-30T23:17:53.859Z,17.32
2019-03-30T23:20:19.996Z,15.48
2019-03-30T23:22:46.148Z,14.75
2019-03-30T23:25:12.318Z,13.90
2019-03-30T23:27:38.405Z,15.35
2019-03-30T23:30:05.759Z,15.03
2019-03-30T23:32:31.925Z,13.60
2019-03-30T23:34:58.056Z,15.13
2019-03-30T23:37:24.113Z,15.10
2019-03-30T23:39:50.247Z,12.98
2019-03-30T23:42:16.363Z,13.80
2019-03-30T23:44:42.484Z,15.58
2019-03-30T23:47:08.507Z,15.03
2019-03-30T23:49:36.841Z,17.23
2019-03-30T23:52:02.968Z,18.25
2019-03-30T23:54:29.096Z,18.12
2019-03-30T23:56:55.729Z,19.00
2019-03-30T23:59:21.861Z,21.48
